sensor_id;sensor_type;location;lat;lon;timestamp;noise_LAeq;noise_LA_min;noise_LA_max;noise_LA01;noise_LA95
85141;Laerm;75501;52.586;13.284;2024-01-15T00:01:34;54.41;52.62;69.54;;
85141;Laerm;75501;52.586;13.284;2024-01-15T00:04:03;56.66;53.25;74.53;;
85141;Laerm;75501;52.586;13.284;2024-01-15T00:06:32;55.88;53.03;74.81;;
85141;Laerm;75501;52.586;13.284;2024-01-15T00:09:00;56.69;53.51;74.96;;
85141;Laerm;75501;52.586;13.284;2024-01-15T00:11:28;56.41;53.41;70.25;;
85141;Laerm;75501;52.586;13.284;2024-01-15T00:13:58;56.05;53.54;69.89;;
85141;Laerm;75501;52.586;13.284;2024-01-15T00:16:26;55.81;53.18;69.91;;
85141;Laerm;75501;52.586;13.284;2024-01-15T00:18:54;55.87;53.19;71.41;;
85141;Laerm;75501;52.586;13.284;2024-01-15T00:21:22;56.06;53.36;66.53;;
85141;Laerm;75501;52.586;13.284;2024-01-15T00:23:51;55.87;53.00;73.91;;
85141;Laerm;75501;52.586;13.284;2024-01-15T00:26:19;56.45;53.08;70.01;;
85141;Laerm;75501;52.586;13.284;2024-01-15T00:28:47;55.82;53.10;71.06;;
85141;Laerm;75501;52.586;13.284;2024-01-15T00:31:17;55.81;53.39;68.87;;
85141;Laerm;75501;52.586;13.284;2024-01-15T00:33:46;55.42;53.03;71.08;;
85141;Laerm;75501;52.586;13.284;2024-01-15T00:36:14;57.88;54.05;71.73;;
85141;Laerm;75501;52.586;13.284;2024-01-15T00:38:44;56.46;53.70;73.99;;
85141;Laerm;75501;52.586;13.284;2024-01-15T00:41:14;55.51;53.14;69.71;;
85141;Laerm;75501;52.586;13.284;2024-01-15T00:43:42;55.94;53.33;70.92;;
85141;Laerm;75501;52.586;13.284;2024-01-15T00:46:11;55.47;53.18;70.22;;
85141;Laerm;75501;52.586;13.284;2024-01-15T00:48:40;55.42;53.26;73.77;;
85141;Laerm;75501;52.586;13.284;2024-01-15T00:51:09;56.14;53.46;70.51;;
85141;Laerm;75501;52.586;13.284;2024-01-15T00:53:37;56.30;53.65;74.17;;
85141;Laerm;75501;52.586;13.284;2024-01-15T00:56:06;56.12;53.25;70.15;;
85141;Laerm;75501;52.586;13.284;2024-01-15T00:58:34;56.49;53.66;71.08;;
85141;Laerm;75501;52.586;13.284;2024-01-15T01:01:02;55.96;53.47;70.47;;
85141;Laerm;75501;52.586;13.284;2024-01-15T01:03:30;55.32;53.17;69.70;;
85141;Laerm;75501;52.586;13.284;2024-01-15T01:06:00;55.20;52.76;68.91;;
85141;Laerm;75501;52.586;13.284;2024-01-15T01:08:28;55.22;53.15;59.71;;
85141;Laerm;75501;52.586;13.284;2024-01-15T01:10:56;55.50;52.87;72.05;;
85141;Laerm;75501;52.586;13.284;2024-01-15T01:13:24;56.73;53.73;75.17;;
85141;Laerm;75501;52.586;13.284;2024-01-15T01:15:52;57.03;54.04;71.77;;
85141;Laerm;75501;52.586;13.284;2024-01-15T01:18:20;58.34;54.53;73.24;;
85141;Laerm;75501;52.586;13.284;2024-01-15T01:20:49;58.87;55.52;72.31;;
85141;Laerm;75501;52.586;13.284;2024-01-15T01:23:19;58.97;55.33;75.54;;
85141;Laerm;75501;52.586;13.284;2024-01-15T01:25:47;58.82;55.42;72.44;;
85141;Laerm;75501;52.586;13.284;2024-01-15T01:28:15;59.40;55.47;74.13;;
85141;Laerm;75501;52.586;13.284;2024-01-15T01:30:43;62.58;57.26;75.36;;
85141;Laerm;75501;52.586;13.284;2024-01-15T01:33:11;61.44;57.19;74.63;;
85141;Laerm;75501;52.586;13.284;2024-01-15T01:35:40;61.25;57.06;74.36;;
85141;Laerm;75501;52.586;13.284;2024-01-15T01:38:08;61.33;57.05;74.00;;
85141;Laerm;75501;52.586;13.284;2024-01-15T01:40:37;59.31;55.12;72.72;;
85141;Laerm;75501;52.586;13.284;2024-01-15T01:43:05;59.51;55.63;73.61;;
85141;Laerm;75501;52.586;13.284;2024-01-15T01:45:33;59.55;55.59;73.76;;
85141;Laerm;75501;52.586;13.284;2024-01-15T01:48:01;60.41;55.82;73.08;;
85141;Laerm;75501;52.586;13.284;2024-01-15T01:50:31;59.63;55.29;75.00;;
85141;Laerm;75501;52.586;13.284;2024-01-15T01:53:00;58.80;55.16;72.59;;
85141;Laerm;75501;52.586;13.284;2024-01-15T01:55:32;58.65;55.02;73.20;;
85141;Laerm;75501;52.586;13.284;2024-01-15T01:58:04;59.95;55.29;72.83;;
85141;Laerm;75501;52.586;13.284;2024-01-15T02:00:33;59.79;55.24;73.78;;
85141;Laerm;75501;52.586;13.284;2024-01-15T02:03:04;60.16;55.04;72.28;;
85141;Laerm;75501;52.586;13.284;2024-01-15T02:05:34;57.22;54.08;74.62;;
85141;Laerm;75501;52.586;13.284;2024-01-15T02:08:03;57.38;53.72;72.86;;
85141;Laerm;75501;52.586;13.284;2024-01-15T02:10:32;58.36;54.65;75.25;;
85141;Laerm;75501;52.586;13.284;2024-01-15T02:13:01;58.33;54.36;73.05;;
85141;Laerm;75501;52.586;13.284;2024-01-15T02:15:29;58.79;55.20;72.30;;
85141;Laerm;75501;52.586;13.284;2024-01-15T02:17:59;58.23;54.79;72.72;;
85141;Laerm;75501;52.586;13.284;2024-01-15T02:20:28;58.71;55.25;73.30;;
85141;Laerm;75501;52.586;13.284;2024-01-15T02:23:08;59.04;54.69;74.92;;
85141;Laerm;75501;52.586;13.284;2024-01-15T02:25:40;57.24;54.27;71.86;;
85141;Laerm;75501;52.586;13.284;2024-01-15T02:28:09;57.58;54.26;71.51;;
85141;Laerm;75501;52.586;13.284;2024-01-15T02:30:39;58.56;54.60;73.27;;
85141;Laerm;75501;52.586;13.284;2024-01-15T02:33:09;59.45;55.28;73.42;;
85141;Laerm;75501;52.586;13.284;2024-01-15T02:35:38;58.47;54.39;70.51;;
85141;Laerm;75501;52.586;13.284;2024-01-15T02:38:08;57.36;54.55;75.32;;
85141;Laerm;75501;52.586;13.284;2024-01-15T02:40:38;56.13;53.43;69.66;;
85141;Laerm;75501;52.586;13.284;2024-01-15T02:43:06;55.62;52.87;70.21;;
85141;Laerm;75501;52.586;13.284;2024-01-15T02:45:34;55.86;53.30;70.49;;
85141;Laerm;75501;52.586;13.284;2024-01-15T02:48:03;55.34;53.13;68.88;;
85141;Laerm;75501;52.586;13.284;2024-01-15T02:50:31;55.38;52.68;72.50;;
85141;Laerm;75501;52.586;13.284;2024-01-15T02:52:59;55.30;53.01;68.47;;
85141;Laerm;75501;52.586;13.284;2024-01-15T02:55:28;54.66;52.57;70.18;;
85141;Laerm;75501;52.586;13.284;2024-01-15T02:57:59;54.79;52.72;67.12;;
85141;Laerm;75501;52.586;13.284;2024-01-15T03:00:27;55.23;52.68;73.03;;
85141;Laerm;75501;52.586;13.284;2024-01-15T03:02:56;55.54;52.94;68.36;;
85141;Laerm;75501;52.586;13.284;2024-01-15T03:05:24;58.76;53.36;74.61;;
85141;Laerm;75501;52.586;13.284;2024-01-15T03:07:52;54.34;52.47;66.61;;
85141;Laerm;75501;52.586;13.284;2024-01-15T03:10:21;53.62;52.26;65.09;;
85141;Laerm;75501;52.586;13.284;2024-01-15T03:12:50;53.64;52.28;64.10;;
85141;Laerm;75501;52.586;13.284;2024-01-15T03:15:18;53.61;52.39;67.03;;
85141;Laerm;75501;52.586;13.284;2024-01-15T03:17:46;54.76;52.46;69.65;;
85141;Laerm;75501;52.586;13.284;2024-01-15T03:20:15;54.91;52.67;68.61;;
85141;Laerm;75501;52.586;13.284;2024-01-15T03:22:43;54.07;52.58;66.50;;
85141;Laerm;75501;52.586;13.284;2024-01-15T03:25:11;54.62;52.50;66.10;;
85141;Laerm;75501;52.586;13.284;2024-01-15T03:27:39;54.49;52.62;67.44;;
85141;Laerm;75501;52.586;13.284;2024-01-15T03:30:10;54.46;52.72;67.22;;
85141;Laerm;75501;52.586;13.284;2024-01-15T03:32:38;55.09;52.77;66.72;;
85141;Laerm;75501;52.586;13.284;2024-01-15T03:35:07;54.43;52.49;66.45;;
85141;Laerm;75501;52.586;13.284;2024-01-15T03:37:35;54.11;52.33;70.73;;
85141;Laerm;75501;52.586;13.284;2024-01-15T03:40:05;53.66;52.32;65.40;;
85141;Laerm;75501;52.586;13.284;2024-01-15T03:42:34;54.43;52.46;66.94;;
85141;Laerm;75501;52.586;13.284;2024-01-15T03:45:02;54.63;52.45;66.29;;
85141;Laerm;75501;52.586;13.284;2024-01-15T03:47:32;54.13;52.54;71.96;;
85141;Laerm;75501;52.586;13.284;2024-01-15T03:50:00;54.55;52.69;58.84;;
85141;Laerm;75501;52.586;13.284;2024-01-15T03:52:28;55.07;52.64;66.07;;
85141;Laerm;75501;52.586;13.284;2024-01-15T03:54:57;54.68;52.75;65.76;;
85141;Laerm;75501;52.586;13.284;2024-01-15T03:57:25;54.81;52.66;64.06;;
85141;Laerm;75501;52.586;13.284;2024-01-15T03:59:53;54.14;52.47;70.72;;
85141;Laerm;75501;52.586;13.284;2024-01-15T04:02:21;54.55;52.56;64.47;;
85141;Laerm;75501;52.586;13.284;2024-01-15T04:04:51;54.19;52.57;63.96;;
85141;Laerm;75501;52.586;13.284;2024-01-15T04:07:19;54.64;52.65;64.35;;
85141;Laerm;75501;52.586;13.284;2024-01-15T04:09:47;54.16;52.41;63.90;;
85141;Laerm;75501;52.586;13.284;2024-01-15T04:12:16;54.74;52.62;63.96;;
85141;Laerm;75501;52.586;13.284;2024-01-15T04:14:44;54.17;52.66;63.13;;
85141;Laerm;75501;52.586;13.284;2024-01-15T04:17:12;54.40;52.64;64.07;;
85141;Laerm;75501;52.586;13.284;2024-01-15T04:19:40;54.14;52.62;64.90;;
85141;Laerm;75501;52.586;13.284;2024-01-15T04:22:12;54.50;52.77;64.00;;
85141;Laerm;75501;52.586;13.284;2024-01-15T04:24:40;54.47;52.63;64.37;;
85141;Laerm;75501;52.586;13.284;2024-01-15T04:27:09;55.22;53.04;64.35;;
85141;Laerm;75501;52.586;13.284;2024-01-15T04:29:38;54.71;52.82;63.68;;
85141;Laerm;75501;52.586;13.284;2024-01-15T04:32:07;54.96;52.87;64.15;;
85141;Laerm;75501;52.586;13.284;2024-01-15T04:34:36;54.33;52.58;57.89;;
85141;Laerm;75501;52.586;13.284;2024-01-15T04:37:05;54.34;52.81;65.03;;
85141;Laerm;75501;52.586;13.284;2024-01-15T04:39:34;54.49;52.70;65.40;;
85141;Laerm;75501;52.586;13.284;2024-01-15T04:42:03;55.15;52.99;59.11;;
85141;Laerm;75501;52.586;13.284;2024-01-15T04:44:31;54.72;53.10;71.11;;
85141;Laerm;75501;52.586;13.284;2024-01-15T04:47:00;54.85;52.95;64.20;;
85141;Laerm;75501;52.586;13.284;2024-01-15T04:49:35;55.44;53.19;66.62;;
85141;Laerm;75501;52.586;13.284;2024-01-15T04:52:13;55.50;52.93;64.92;;
85141;Laerm;75501;52.586;13.284;2024-01-15T04:54:43;54.42;52.90;63.69;;
85141;Laerm;75501;52.586;13.284;2024-01-15T04:57:11;54.61;52.89;63.09;;
85141;Laerm;75501;52.586;13.284;2024-01-15T04:59:40;54.20;52.65;63.60;;
85141;Laerm;75501;52.586;13.284;2024-01-15T05:02:08;54.75;52.90;62.96;;
85141;Laerm;75501;52.586;13.284;2024-01-15T05:04:36;54.78;52.69;63.37;;
85141;Laerm;75501;52.586;13.284;2024-01-15T05:07:04;55.23;52.87;62.47;;
85141;Laerm;75501;52.586;13.284;2024-01-15T05:09:32;55.00;52.97;63.86;;
85141;Laerm;75501;52.586;13.284;2024-01-15T05:12:02;55.55;52.95;63.53;;
85141;Laerm;75501;52.586;13.284;2024-01-15T05:14:30;55.24;53.16;62.88;;
85141;Laerm;75501;52.586;13.284;2024-01-15T05:16:58;55.50;53.04;62.59;;
85141;Laerm;75501;52.586;13.284;2024-01-15T05:19:26;55.01;52.95;63.47;;
85141;Laerm;75501;52.586;13.284;2024-01-15T05:21:55;55.18;52.90;63.87;;
85141;Laerm;75501;52.586;13.284;2024-01-15T05:24:23;55.21;52.72;64.17;;
85141;Laerm;75501;52.586;13.284;2024-01-15T05:26:53;54.75;52.82;63.12;;
85141;Laerm;75501;52.586;13.284;2024-01-15T05:29:23;55.38;52.84;63.93;;
85141;Laerm;75501;52.586;13.284;2024-01-15T05:31:51;54.92;52.82;63.62;;
85141;Laerm;75501;52.586;13.284;2024-01-15T05:34:19;54.81;52.96;64.52;;
85141;Laerm;75501;52.586;13.284;2024-01-15T05:36:48;56.17;52.80;63.84;;
85141;Laerm;75501;52.586;13.284;2024-01-15T05:39:16;55.20;53.08;70.82;;
85141;Laerm;75501;52.586;13.284;2024-01-15T05:41:46;55.21;52.92;65.28;;
85141;Laerm;75501;52.586;13.284;2024-01-15T05:44:14;55.03;53.06;63.26;;
85141;Laerm;75501;52.586;13.284;2024-01-15T05:46:44;55.10;53.30;63.49;;
85141;Laerm;75501;52.586;13.284;2024-01-15T05:49:12;54.99;53.23;71.27;;
85141;Laerm;75501;52.586;13.284;2024-01-15T05:51:41;54.84;52.83;70.42;;
85141;Laerm;75501;52.586;13.284;2024-01-15T05:54:09;55.62;53.00;63.14;;
85141;Laerm;75501;52.586;13.284;2024-01-15T05:56:37;55.20;53.06;64.06;;
85141;Laerm;75501;52.586;13.284;2024-01-15T05:59:05;55.25;52.97;64.16;;
85141;Laerm;75501;52.586;13.284;2024-01-15T06:01:33;54.91;52.98;65.06;;
85141;Laerm;75501;52.586;13.284;2024-01-15T06:04:03;54.99;52.91;65.76;;
85141;Laerm;75501;52.586;13.284;2024-01-15T06:06:31;54.96;53.06;64.83;;
85141;Laerm;75501;52.586;13.284;2024-01-15T06:08:59;54.99;52.93;64.03;;
85141;Laerm;75501;52.586;13.284;2024-01-15T06:11:32;55.26;53.01;64.11;;
85141;Laerm;75501;52.586;13.284;2024-01-15T06:14:00;55.10;52.95;70.81;;
85141;Laerm;75501;52.586;13.284;2024-01-15T06:16:29;54.66;52.79;62.83;;
85141;Laerm;75501;52.586;13.284;2024-01-15T06:18:57;55.27;52.95;65.21;;
85141;Laerm;75501;52.586;13.284;2024-01-15T06:21:26;55.41;53.02;63.94;;
85141;Laerm;75501;52.586;13.284;2024-01-15T06:23:55;55.13;52.88;62.23;;
85141;Laerm;75501;52.586;13.284;2024-01-15T06:26:24;55.17;52.75;71.15;;
85141;Laerm;75501;52.586;13.284;2024-01-15T06:28:52;55.98;52.99;70.85;;
85141;Laerm;75501;52.586;13.284;2024-01-15T06:31:20;57.40;55.01;65.81;;
85141;Laerm;75501;52.586;13.284;2024-01-15T06:33:49;57.92;54.93;71.86;;
85141;Laerm;75501;52.586;13.284;2024-01-15T06:36:17;58.57;54.99;71.62;;
85141;Laerm;75501;52.586;13.284;2024-01-15T06:38:47;55.06;52.81;63.29;;
85141;Laerm;75501;52.586;13.284;2024-01-15T06:41:15;54.74;52.97;63.92;;
85141;Laerm;75501;52.586;13.284;2024-01-15T06:43:43;54.97;52.99;64.11;;
85141;Laerm;75501;52.586;13.284;2024-01-15T06:46:11;55.40;52.90;64.58;;
85141;Laerm;75501;52.586;13.284;2024-01-15T06:48:41;55.28;53.03;65.59;;
85141;Laerm;75501;52.586;13.284;2024-01-15T06:51:10;55.16;52.82;64.22;;
85141;Laerm;75501;52.586;13.284;2024-01-15T06:53:38;55.47;52.89;63.92;;
85141;Laerm;75501;52.586;13.284;2024-01-15T06:56:08;54.67;52.68;62.24;;
85141;Laerm;75501;52.586;13.284;2024-01-15T06:58:36;55.10;52.61;61.42;;
85141;Laerm;75501;52.586;13.284;2024-01-15T07:01:09;55.46;53.03;64.52;;
85141;Laerm;75501;52.586;13.284;2024-01-15T07:03:38;55.42;52.99;62.43;;
85141;Laerm;75501;52.586;13.284;2024-01-15T07:06:07;54.98;53.16;58.26;;
85141;Laerm;75501;52.586;13.284;2024-01-15T07:08:35;54.81;53.04;64.59;;
85141;Laerm;75501;52.586;13.284;2024-01-15T07:11:04;55.37;53.16;64.13;;
85141;Laerm;75501;52.586;13.284;2024-01-15T07:13:36;54.99;52.88;62.87;;
85141;Laerm;75501;52.586;13.284;2024-01-15T07:16:05;55.49;53.01;63.00;;
85141;Laerm;75501;52.586;13.284;2024-01-15T07:18:34;55.85;53.05;71.40;;
85141;Laerm;75501;52.586;13.284;2024-01-15T07:21:03;55.14;53.24;61.97;;
85141;Laerm;75501;52.586;13.284;2024-01-15T07:23:31;55.19;52.92;71.78;;
85141;Laerm;75501;52.586;13.284;2024-01-15T07:26:00;55.63;52.95;71.04;;
85141;Laerm;75501;52.586;13.284;2024-01-15T07:28:29;56.03;53.29;62.56;;
85141;Laerm;75501;52.586;13.284;2024-01-15T07:30:59;55.22;53.17;61.87;;
85141;Laerm;75501;52.586;13.284;2024-01-15T07:33:29;55.78;53.50;62.01;;
85141;Laerm;75501;52.586;13.284;2024-01-15T07:35:58;56.27;53.20;65.07;;
85141;Laerm;75501;52.586;13.284;2024-01-15T07:38:29;55.89;53.40;62.64;;
85141;Laerm;75501;52.586;13.284;2024-01-15T07:40:58;55.63;53.25;60.97;;
85141;Laerm;75501;52.586;13.284;2024-01-15T07:43:27;56.05;53.52;70.07;;
85141;Laerm;75501;52.586;13.284;2024-01-15T07:45:56;55.92;53.67;69.77;;
85141;Laerm;75501;52.586;13.284;2024-01-15T07:48:27;55.73;53.44;70.82;;
85141;Laerm;75501;52.586;13.284;2024-01-15T07:50:56;56.41;53.51;64.10;;
85141;Laerm;75501;52.586;13.284;2024-01-15T07:53:25;55.01;52.98;71.23;;
85141;Laerm;75501;52.586;13.284;2024-01-15T07:55:54;55.46;53.14;70.33;;
85141;Laerm;75501;52.586;13.284;2024-01-15T07:58:22;56.03;53.37;70.87;;
85141;Laerm;75501;52.586;13.284;2024-01-15T08:00:51;55.77;53.48;60.46;;
85141;Laerm;75501;52.586;13.284;2024-01-15T08:03:19;56.48;53.31;74.10;;
85141;Laerm;75501;52.586;13.284;2024-01-15T08:05:49;57.97;53.57;79.19;;
85141;Laerm;75501;52.586;13.284;2024-01-15T08:08:20;55.85;53.18;63.67;;
85141;Laerm;75501;52.586;13.284;2024-01-15T08:10:50;55.71;53.16;62.66;;
85141;Laerm;75501;52.586;13.284;2024-01-15T08:13:18;55.75;53.34;61.96;;
85141;Laerm;75501;52.586;13.284;2024-01-15T08:15:48;55.83;53.45;69.88;;
85141;Laerm;75501;52.586;13.284;2024-01-15T08:18:17;56.06;53.56;65.60;;
85141;Laerm;75501;52.586;13.284;2024-01-15T08:20:45;55.37;53.18;62.06;;
85141;Laerm;75501;52.586;13.284;2024-01-15T08:23:15;55.27;53.13;60.18;;
85141;Laerm;75501;52.586;13.284;2024-01-15T08:25:43;55.52;53.23;61.65;;
85141;Laerm;75501;52.586;13.284;2024-01-15T08:28:11;55.52;53.29;62.58;;
85141;Laerm;75501;52.586;13.284;2024-01-15T08:30:40;55.61;53.42;61.88;;
85141;Laerm;75501;52.586;13.284;2024-01-15T08:33:08;55.62;53.37;64.91;;
85141;Laerm;75501;52.586;13.284;2024-01-15T08:35:47;55.24;53.31;59.86;;
85141;Laerm;75501;52.586;13.284;2024-01-15T08:38:19;55.28;53.37;70.73;;
85141;Laerm;75501;52.586;13.284;2024-01-15T08:40:49;55.15;53.52;63.12;;
85141;Laerm;75501;52.586;13.284;2024-01-15T08:43:29;55.90;53.62;63.00;;
85141;Laerm;75501;52.586;13.284;2024-01-15T08:46:33;56.15;53.52;66.27;;
85141;Laerm;75501;52.586;13.284;2024-01-15T08:49:27;56.28;53.88;73.39;;
85141;Laerm;75501;52.586;13.284;2024-01-15T08:52:21;55.44;53.57;65.05;;
85141;Laerm;75501;52.586;13.284;2024-01-15T08:55:41;55.37;53.16;65.03;;
85141;Laerm;75501;52.586;13.284;2024-01-15T08:58:36;55.80;53.30;63.49;;
85141;Laerm;75501;52.586;13.284;2024-01-15T09:01:12;54.99;53.46;63.33;;
85141;Laerm;75501;52.586;13.284;2024-01-15T09:03:48;55.47;53.20;62.83;;
85141;Laerm;75501;52.586;13.284;2024-01-15T09:06:18;55.51;53.33;60.71;;
85141;Laerm;75501;52.586;13.284;2024-01-15T09:08:53;54.74;53.07;61.15;;
85141;Laerm;75501;52.586;13.284;2024-01-15T09:11:25;55.26;53.43;61.77;;
85141;Laerm;75501;52.586;13.284;2024-01-15T09:14:02;55.50;53.19;63.36;;
85141;Laerm;75501;52.586;13.284;2024-01-15T09:16:34;55.72;53.24;62.39;;
85141;Laerm;75501;52.586;13.284;2024-01-15T09:19:03;55.66;53.00;61.51;;
85141;Laerm;75501;52.586;13.284;2024-01-15T09:21:47;55.23;53.08;61.55;;
85141;Laerm;75501;52.586;13.284;2024-01-15T09:24:34;55.50;53.42;63.39;;
85141;Laerm;75501;52.586;13.284;2024-01-15T09:27:49;55.61;53.67;70.97;;
85141;Laerm;75501;52.586;13.284;2024-01-15T09:30:31;55.38;53.40;70.61;;
85141;Laerm;75501;52.586;13.284;2024-01-15T09:33:11;55.08;53.33;58.68;;
85141;Laerm;75501;52.586;13.284;2024-01-15T09:36:31;55.40;53.41;60.36;;
85141;Laerm;75501;52.586;13.284;2024-01-15T09:39:16;55.28;53.37;62.48;;
85141;Laerm;75501;52.586;13.284;2024-01-15T09:42:07;55.78;53.55;62.40;;
85141;Laerm;75501;52.586;13.284;2024-01-15T09:45:15;55.27;53.68;60.18;;
85141;Laerm;75501;52.586;13.284;2024-01-15T09:47:48;55.36;53.54;60.47;;
85141;Laerm;75501;52.586;13.284;2024-01-15T09:50:19;55.70;53.75;62.09;;
85141;Laerm;75501;52.586;13.284;2024-01-15T09:52:57;55.32;53.59;59.29;;
85141;Laerm;75501;52.586;13.284;2024-01-15T09:55:29;55.61;53.57;60.49;;
85141;Laerm;75501;52.586;13.284;2024-01-15T09:58:00;55.97;53.60;61.22;;
85141;Laerm;75501;52.586;13.284;2024-01-15T10:00:34;55.52;53.61;63.95;;
85141;Laerm;75501;52.586;13.284;2024-01-15T10:03:10;55.30;53.46;58.97;;
85141;Laerm;75501;52.586;13.284;2024-01-15T10:05:39;55.03;53.46;59.24;;
85141;Laerm;75501;52.586;13.284;2024-01-15T10:08:10;55.29;53.62;59.19;;
85141;Laerm;75501;52.586;13.284;2024-01-15T10:10:41;55.61;53.69;59.91;;
85141;Laerm;75501;52.586;13.284;2024-01-15T10:13:11;55.58;53.55;69.52;;
85141;Laerm;75501;52.586;13.284;2024-01-15T10:15:41;55.12;53.45;59.09;;
85141;Laerm;75501;52.586;13.284;2024-01-15T10:18:14;55.82;53.77;59.67;;
85141;Laerm;75501;52.586;13.284;2024-01-15T10:20:46;55.56;53.50;60.30;;
85141;Laerm;75501;52.586;13.284;2024-01-15T10:23:33;55.43;53.67;59.08;;
85141;Laerm;75501;52.586;13.284;2024-01-15T10:26:08;55.66;53.45;59.38;;
85141;Laerm;75501;52.586;13.284;2024-01-15T10:28:40;55.47;53.58;60.67;;
85141;Laerm;75501;52.586;13.284;2024-01-15T10:31:11;55.20;53.56;70.15;;
85141;Laerm;75501;52.586;13.284;2024-01-15T10:33:40;55.23;53.61;61.23;;
85141;Laerm;75501;52.586;13.284;2024-01-15T10:36:10;55.75;53.49;71.51;;
85141;Laerm;75501;52.586;13.284;2024-01-15T10:38:39;56.13;53.69;64.63;;
85141;Laerm;75501;52.586;13.284;2024-01-15T10:41:15;56.38;53.37;70.40;;
85141;Laerm;75501;52.586;13.284;2024-01-15T10:43:46;55.20;53.63;58.55;;
85141;Laerm;75501;52.586;13.284;2024-01-15T10:46:30;55.73;53.85;61.51;;
85141;Laerm;75501;52.586;13.284;2024-01-15T10:49:10;55.88;53.74;61.65;;
85141;Laerm;75501;52.586;13.284;2024-01-15T10:51:49;55.35;53.53;61.85;;
85141;Laerm;75501;52.586;13.284;2024-01-15T10:54:37;55.13;53.85;59.82;;
85141;Laerm;75501;52.586;13.284;2024-01-15T10:57:25;55.65;53.70;59.64;;
85141;Laerm;75501;52.586;13.284;2024-01-15T10:59:58;55.59;53.85;59.15;;
85141;Laerm;75501;52.586;13.284;2024-01-15T11:02:32;55.63;53.46;59.49;;
85141;Laerm;75501;52.586;13.284;2024-01-15T11:05:01;55.70;53.67;58.89;;
85141;Laerm;75501;52.586;13.284;2024-01-15T11:07:34;55.31;53.48;60.32;;
85141;Laerm;75501;52.586;13.284;2024-01-15T11:10:41;55.28;53.58;59.31;;
85141;Laerm;75501;52.586;13.284;2024-01-15T11:13:14;55.18;53.62;59.97;;
85141;Laerm;75501;52.586;13.284;2024-01-15T11:16:00;55.44;53.88;61.03;;
85141;Laerm;75501;52.586;13.284;2024-01-15T11:18:42;56.06;53.89;60.63;;
85141;Laerm;75501;52.586;13.284;2024-01-15T11:21:32;55.22;53.59;59.14;;
85141;Laerm;75501;52.586;13.284;2024-01-15T11:24:04;55.69;53.66;61.37;;
85141;Laerm;75501;52.586;13.284;2024-01-15T11:26:45;55.35;53.60;65.21;;
85141;Laerm;75501;52.586;13.284;2024-01-15T11:29:33;55.61;53.57;60.92;;
85141;Laerm;75501;52.586;13.284;2024-01-15T11:32:04;55.19;53.41;68.88;;
85141;Laerm;75501;52.586;13.284;2024-01-15T11:35:00;55.31;53.57;58.48;;
85141;Laerm;75501;52.586;13.284;2024-01-15T11:37:59;55.23;53.65;59.13;;
85141;Laerm;75501;52.586;13.284;2024-01-15T11:40:39;55.13;53.34;58.88;;
85141;Laerm;75501;52.586;13.284;2024-01-15T11:43:12;54.94;53.41;63.42;;
85141;Laerm;75501;52.586;13.284;2024-01-15T11:45:42;54.75;52.72;60.03;;
85141;Laerm;75501;52.586;13.284;2024-01-15T11:48:14;54.61;52.74;60.10;;
85141;Laerm;75501;52.586;13.284;2024-01-15T11:50:49;55.28;53.03;66.80;;
85141;Laerm;75501;52.586;13.284;2024-01-15T11:53:27;55.57;52.63;66.83;;
85141;Laerm;75501;52.586;13.284;2024-01-15T11:56:13;55.49;52.60;67.87;;
85141;Laerm;75501;52.586;13.284;2024-01-15T11:58:47;55.46;52.76;69.23;;
85141;Laerm;75501;52.586;13.284;2024-01-15T12:01:18;56.19;52.76;68.18;;
85141;Laerm;75501;52.586;13.284;2024-01-15T12:03:48;55.84;52.89;66.75;;
85141;Laerm;75501;52.586;13.284;2024-01-15T12:06:18;54.61;52.23;64.70;;
85141;Laerm;75501;52.586;13.284;2024-01-15T12:08:46;55.88;52.86;68.33;;
85141;Laerm;75501;52.586;13.284;2024-01-15T12:11:18;54.81;52.43;67.35;;
85141;Laerm;75501;52.586;13.284;2024-01-15T12:13:51;55.27;52.57;64.90;;
85141;Laerm;75501;52.586;13.284;2024-01-15T12:16:24;55.08;52.81;66.40;;
85141;Laerm;75501;52.586;13.284;2024-01-15T12:18:52;54.75;52.43;71.60;;
85141;Laerm;75501;52.586;13.284;2024-01-15T12:21:28;54.31;52.45;65.51;;
85141;Laerm;75501;52.586;13.284;2024-01-15T12:23:57;55.39;52.66;64.55;;
85141;Laerm;75501;52.586;13.284;2024-01-15T12:26:26;54.97;52.48;71.72;;
85141;Laerm;75501;52.586;13.284;2024-01-15T12:29:02;54.73;52.33;64.62;;
85141;Laerm;75501;52.586;13.284;2024-01-15T12:31:34;55.90;52.58;64.98;;
85141;Laerm;75501;52.586;13.284;2024-01-15T12:34:10;55.59;52.34;66.70;;
85141;Laerm;75501;52.586;13.284;2024-01-15T12:36:45;55.35;52.31;66.09;;
85141;Laerm;75501;52.586;13.284;2024-01-15T12:39:14;55.64;52.39;68.08;;
85141;Laerm;75501;52.586;13.284;2024-01-15T12:41:43;55.60;52.70;73.43;;
85141;Laerm;75501;52.586;13.284;2024-01-15T12:44:15;56.35;52.73;72.73;;
85141;Laerm;75501;52.586;13.284;2024-01-15T12:46:44;57.24;53.18;69.06;;
85141;Laerm;75501;52.586;13.284;2024-01-15T12:49:15;57.09;52.88;73.20;;
85141;Laerm;75501;52.586;13.284;2024-01-15T12:51:52;57.60;53.88;71.28;;
85141;Laerm;75501;52.586;13.284;2024-01-15T12:54:24;57.80;53.09;69.10;;
85141;Laerm;75501;52.586;13.284;2024-01-15T12:56:59;56.07;53.00;69.31;;
85141;Laerm;75501;52.586;13.284;2024-01-15T12:59:28;56.05;52.65;71.94;;
85141;Laerm;75501;52.586;13.284;2024-01-15T13:02:02;55.39;52.93;73.45;;
85141;Laerm;75501;52.586;13.284;2024-01-15T13:04:31;55.07;52.43;66.53;;
85141;Laerm;75501;52.586;13.284;2024-01-15T13:07:01;55.63;52.67;73.29;;
85141;Laerm;75501;52.586;13.284;2024-01-15T13:09:30;57.40;53.06;69.73;;
85141;Laerm;75501;52.586;13.284;2024-01-15T13:12:02;57.92;54.49;71.21;;
85141;Laerm;75501;52.586;13.284;2024-01-15T13:14:34;57.76;54.35;71.89;;
85141;Laerm;75501;52.586;13.284;2024-01-15T13:17:10;57.61;53.88;70.69;;
85141;Laerm;75501;52.586;13.284;2024-01-15T13:19:39;57.10;53.79;70.31;;
85141;Laerm;75501;52.586;13.284;2024-01-15T13:22:09;57.34;53.62;73.88;;
85141;Laerm;75501;52.586;13.284;2024-01-15T13:24:46;56.35;52.92;67.72;;
85141;Laerm;75501;52.586;13.284;2024-01-15T13:27:14;56.77;52.92;71.17;;
85141;Laerm;75501;52.586;13.284;2024-01-15T13:29:44;56.86;53.28;69.85;;
85141;Laerm;75501;52.586;13.284;2024-01-15T13:32:21;58.55;52.67;75.35;;
85141;Laerm;75501;52.586;13.284;2024-01-15T13:34:50;57.97;53.20;74.43;;
85141;Laerm;75501;52.586;13.284;2024-01-15T13:37:20;55.44;52.81;73.56;;
85141;Laerm;75501;52.586;13.284;2024-01-15T13:39:48;55.57;52.69;60.65;;
85141;Laerm;75501;52.586;13.284;2024-01-15T13:42:20;58.88;52.54;71.75;;
85141;Laerm;75501;52.586;13.284;2024-01-15T13:58:05;55.50;52.36;64.76;;
85141;Laerm;75501;52.586;13.284;2024-01-15T14:01:08;55.69;52.64;69.15;;
85141;Laerm;75501;52.586;13.284;2024-01-15T14:04:30;56.23;53.04;65.88;;
85141;Laerm;75501;52.586;13.284;2024-01-15T14:07:43;56.08;52.87;66.82;;
85141;Laerm;75501;52.586;13.284;2024-01-15T14:11:21;55.21;52.85;65.72;;
85141;Laerm;75501;52.586;13.284;2024-01-15T14:18:09;54.53;52.25;64.01;;